sensor_id;sensor_type;location;lat;lon;timestamp;pressure;altitude;pressure_sealevel;temperature;humidity
16525;BME280;8375;33.594;-117.718;2024-01-11T00:00:19;100099.00;;;14.96;72.00
16525;BME280;8375;33.594;-117.718;2024-01-11T00:02:47;100097.28;;;14.87;72.79
16525;BME280;8375;33.594;-117.718;2024-01-11T00:05:16;100096.06;;;14.81;73.14
16525;BME280;8375;33.594;-117.718;2024-01-11T00:07:45;100104.00;;;14.62;73.13
16525;BME280;8375;33.594;-117.718;2024-01-11T00:10:13;100096.75;;;14.56;73.54
16525;BME280;8375;33.594;-117.718;2024-01-11T00:12:44;100091.72;;;14.44;74.79
16525;BME280;8375;33.594;-117.718;2024-01-11T00:15:13;100083.28;;;14.32;75.29
16525;BME280;8375;33.594;-117.718;2024-01-11T00:17:41;100082.03;;;14.36;76.07
16525;BME280;8375;33.594;-117.718;2024-01-11T00:20:10;100090.56;;;14.29;74.63
16525;BME280;8375;33.594;-117.718;2024-01-11T00:22:39;100090.47;;;14.20;74.73
16525;BME280;8375;33.594;-117.718;2024-01-11T00:25:08;100100.41;;;14.07;74.87
16525;BME280;8375;33.594;-117.718;2024-01-11T00:27:37;100095.75;;;14.01;76.62
16525;BME280;8375;33.594;-117.718;2024-01-11T00:30:08;100099.22;;;13.91;77.20
16525;BME280;8375;33.594;-117.718;2024-01-11T00:32:37;100093.63;;;13.86;77.75
16525;BME280;8375;33.594;-117.718;2024-01-11T00:35:06;100095.47;;;13.66;79.40
16525;BME280;8375;33.594;-117.718;2024-01-11T00:37:35;100096.56;;;13.63;80.18
16525;BME280;8375;33.594;-117.718;2024-01-11T00:40:04;100100.28;;;13.61;80.73
16525;BME280;8375;33.594;-117.718;2024-01-11T00:42:33;100098.91;;;13.57;81.41
16525;BME280;8375;33.594;-117.718;2024-01-11T00:45:02;100102.47;;;13.46;82.06
16525;BME280;8375;33.594;-117.718;2024-01-11T00:47:33;100102.88;;;13.41;83.04
16525;BME280;8375;33.594;-117.718;2024-01-11T00:50:01;100099.19;;;13.34;83.62
16525;BME280;8375;33.594;-117.718;2024-01-11T00:52:33;100102.59;;;13.34;85.10
16525;BME280;8375;33.594;-117.718;2024-01-11T00:55:02;100102.75;;;13.23;86.88
16525;BME280;8375;33.594;-117.718;2024-01-11T00:57:31;100097.13;;;13.28;88.11
16525;BME280;8375;33.594;-117.718;2024-01-11T01:00:00;100103.16;;;13.09;89.32
16525;BME280;8375;33.594;-117.718;2024-01-11T01:02:29;100095.06;;;13.12;89.67
16525;BME280;8375;33.594;-117.718;2024-01-11T01:04:59;100096.84;;;13.11;90.13
16525;BME280;8375;33.594;-117.718;2024-01-11T01:07:28;100089.03;;;13.01;90.30
16525;BME280;8375;33.594;-117.718;2024-01-11T01:09:57;100095.59;;;12.96;90.18
16525;BME280;8375;33.594;-117.718;2024-01-11T01:12:26;100090.81;;;12.91;90.21
16525;BME280;8375;33.594;-117.718;2024-01-11T01:14:55;100091.63;;;12.82;90.52
16525;BME280;8375;33.594;-117.718;2024-01-11T01:17:23;100101.63;;;12.76;90.44
16525;BME280;8375;33.594;-117.718;2024-01-11T01:19:52;100098.31;;;12.74;90.14
16525;BME280;8375;33.594;-117.718;2024-01-11T01:22:22;100102.84;;;12.72;90.15
16525;BME280;8375;33.594;-117.718;2024-01-11T01:24:51;100099.94;;;12.66;90.49
16525;BME280;8375;33.594;-117.718;2024-01-11T01:27:19;100101.31;;;12.60;90.20
16525;BME280;8375;33.594;-117.718;2024-01-11T01:29:48;100100.75;;;12.56;90.25
16525;BME280;8375;33.594;-117.718;2024-01-11T01:32:17;100097.16;;;12.47;89.39
16525;BME280;8375;33.594;-117.718;2024-01-11T01:34:45;100100.03;;;12.44;90.03
16525;BME280;8375;33.594;-117.718;2024-01-11T01:37:14;100098.94;;;12.47;89.86
16525;BME280;8375;33.594;-117.718;2024-01-11T01:39:43;100101.94;;;12.42;89.14
16525;BME280;8375;33.594;-117.718;2024-01-11T01:42:12;100096.16;;;12.39;88.34
16525;BME280;8375;33.594;-117.718;2024-01-11T01:44:40;100086.16;;;12.34;88.91
16525;BME280;8375;33.594;-117.718;2024-01-11T01:47:09;100085.25;;;12.04;91.19
16525;BME280;8375;33.594;-117.718;2024-01-11T01:49:39;100085.50;;;12.01;92.88
16525;BME280;8375;33.594;-117.718;2024-01-11T01:52:08;100089.81;;;11.91;94.16
16525;BME280;8375;33.594;-117.718;2024-01-11T01:54:37;100083.91;;;11.88;94.18
16525;BME280;8375;33.594;-117.718;2024-01-11T01:57:08;100092.66;;;11.87;94.18
16525;BME280;8375;33.594;-117.718;2024-01-11T01:59:39;100089.91;;;11.89;94.25
16525;BME280;8375;33.594;-117.718;2024-01-11T02:02:08;100090.06;;;11.87;93.95
16525;BME280;8375;33.594;-117.718;2024-01-11T02:04:36;100084.16;;;11.85;92.84
16525;BME280;8375;33.594;-117.718;2024-01-11T02:07:06;100090.31;;;11.84;92.26
16525;BME280;8375;33.594;-117.718;2024-01-11T02:09:35;100093.88;;;11.83;93.42
16525;BME280;8375;33.594;-117.718;2024-01-11T02:12:07;100087.28;;;11.79;93.19
16525;BME280;8375;33.594;-117.718;2024-01-11T02:14:38;100087.09;;;11.71;93.13
16525;BME280;8375;33.594;-117.718;2024-01-11T02:17:06;100081.47;;;11.66;93.38
16525;BME280;8375;33.594;-117.718;2024-01-11T02:19:35;100079.47;;;11.58;92.92
16525;BME280;8375;33.594;-117.718;2024-01-11T02:22:08;100079.03;;;11.53;92.39
16525;BME280;8375;33.594;-117.718;2024-01-11T02:24:38;100090.34;;;11.42;92.50
16525;BME280;8375;33.594;-117.718;2024-01-11T02:27:07;100095.78;;;11.39;92.40
16525;BME280;8375;33.594;-117.718;2024-01-11T02:29:37;100105.47;;;11.37;92.68
16525;BME280;8375;33.594;-117.718;2024-01-11T02:32:06;100102.88;;;11.37;92.67
16525;BME280;8375;33.594;-117.718;2024-01-11T02:34:35;100099.84;;;11.32;92.41
16525;BME280;8375;33.594;-117.718;2024-01-11T02:37:04;100098.69;;;11.24;92.76
16525;BME280;8375;33.594;-117.718;2024-01-11T02:39:34;100091.94;;;11.22;92.69
16525;BME280;8375;33.594;-117.718;2024-01-11T02:42:05;100099.28;;;11.17;92.76
16525;BME280;8375;33.594;-117.718;2024-01-11T02:44:33;100097.19;;;11.10;92.99
16525;BME280;8375;33.594;-117.718;2024-01-11T02:47:03;100093.34;;;11.05;93.52
16525;BME280;8375;33.594;-117.718;2024-01-11T02:49:32;100095.47;;;10.99;93.18
16525;BME280;8375;33.594;-117.718;2024-01-11T02:52:01;100100.22;;;10.94;93.79
16525;BME280;8375;33.594;-117.718;2024-01-11T02:54:30;100100.09;;;10.84;94.65
16525;BME280;8375;33.594;-117.718;2024-01-11T02:56:58;100101.19;;;10.82;94.41
16525;BME280;8375;33.594;-117.718;2024-01-11T02:59:29;100107.81;;;10.75;94.36
16525;BME280;8375;33.594;-117.718;2024-01-11T03:01:57;100107.47;;;10.68;94.70
16525;BME280;8375;33.594;-117.718;2024-01-11T03:04:26;100102.50;;;10.65;95.14
16525;BME280;8375;33.594;-117.718;2024-01-11T03:06:57;100096.03;;;10.59;95.24
16525;BME280;8375;33.594;-117.718;2024-01-11T03:09:26;100095.00;;;10.50;95.50
16525;BME280;8375;33.594;-117.718;2024-01-11T03:11:55;100103.94;;;10.35;96.49
16525;BME280;8375;33.594;-117.718;2024-01-11T03:14:23;100103.00;;;10.36;96.69
16525;BME280;8375;33.594;-117.718;2024-01-11T03:16:53;100107.47;;;10.34;96.51
16525;BME280;8375;33.594;-117.718;2024-01-11T03:19:22;100105.94;;;10.08;97.28
16525;BME280;8375;33.594;-117.718;2024-01-11T03:21:51;100113.13;;;9.93;98.55
16525;BME280;8375;33.594;-117.718;2024-01-11T03:24:19;100104.88;;;10.00;98.13
16525;BME280;8375;33.594;-117.718;2024-01-11T03:26:48;100108.97;;;10.02;97.56
16525;BME280;8375;33.594;-117.718;2024-01-11T03:29:17;100114.88;;;10.04;98.14
16525;BME280;8375;33.594;-117.718;2024-01-11T03:31:45;100112.06;;;10.07;97.50
16525;BME280;8375;33.594;-117.718;2024-01-11T03:34:15;100114.66;;;10.07;97.18
16525;BME280;8375;33.594;-117.718;2024-01-11T03:36:44;100112.28;;;10.04;97.72
16525;BME280;8375;33.594;-117.718;2024-01-11T03:39:13;100111.47;;;10.04;97.89
16525;BME280;8375;33.594;-117.718;2024-01-11T03:41:44;100108.28;;;10.00;97.69
16525;BME280;8375;33.594;-117.718;2024-01-11T03:44:12;100117.47;;;9.93;98.39
16525;BME280;8375;33.594;-117.718;2024-01-11T03:46:41;100116.03;;;9.89;98.67
16525;BME280;8375;33.594;-117.718;2024-01-11T03:49:10;100123.00;;;9.88;98.54
16525;BME280;8375;33.594;-117.718;2024-01-11T03:51:40;100119.81;;;9.84;98.89
16525;BME280;8375;33.594;-117.718;2024-01-11T03:54:09;100116.50;;;9.82;98.83
16525;BME280;8375;33.594;-117.718;2024-01-11T03:56:38;100120.16;;;9.80;98.11
16525;BME280;8375;33.594;-117.718;2024-01-11T03:59:07;100116.25;;;9.74;98.89
16525;BME280;8375;33.594;-117.718;2024-01-11T04:01:40;100119.06;;;9.71;98.72
16525;BME280;8375;33.594;-117.718;2024-01-11T04:04:08;100121.19;;;9.66;99.13
16525;BME280;8375;33.594;-117.718;2024-01-11T04:06:39;100120.69;;;9.61;99.59
16525;BME280;8375;33.594;-117.718;2024-01-11T04:09:07;100121.75;;;9.58;99.94
16525;BME280;8375;33.594;-117.718;2024-01-11T04:11:35;100116.81;;;9.55;100.00
16525;BME280;8375;33.594;-117.718;2024-01-11T04:14:03;100109.13;;;9.53;100.00
16525;BME280;8375;33.594;-117.718;2024-01-11T04:16:32;100116.31;;;9.50;100.00
16525;BME280;8375;33.594;-117.718;2024-01-11T04:19:01;100107.00;;;9.47;100.00
16525;BME280;8375;33.594;-117.718;2024-01-11T04:21:30;100108.66;;;9.48;99.78
16525;BME280;8375;33.594;-117.718;2024-01-11T04:24:00;100115.72;;;9.46;100.00
16525;BME280;8375;33.594;-117.718;2024-01-11T04:26:29;100106.03;;;9.37;100.00
16525;BME280;8375;33.594;-117.718;2024-01-11T04:28:57;100103.56;;;9.35;100.00
16525;BME280;8375;33.594;-117.718;2024-01-11T04:31:26;100103.16;;;9.29;100.00
16525;BME280;8375;33.594;-117.718;2024-01-11T04:33:55;100105.03;;;9.27;100.00
16525;BME280;8375;33.594;-117.718;2024-01-11T04:36:23;100107.75;;;9.25;100.00
16525;BME280;8375;33.594;-117.718;2024-01-11T04:38:52;100119.06;;;9.24;100.00
16525;BME280;8375;33.594;-117.718;2024-01-11T04:41:22;100112.94;;;9.25;100.00
16525;BME280;8375;33.594;-117.718;2024-01-11T04:43:51;100110.00;;;9.30;100.00
16525;BME280;8375;33.594;-117.718;2024-01-11T04:46:20;100113.53;;;9.29;100.00
16525;BME280;8375;33.594;-117.718;2024-01-11T04:48:50;100115.66;;;9.35;100.00
16525;BME280;8375;33.594;-117.718;2024-01-11T04:51:19;100110.88;;;9.42;100.00
16525;BME280;8375;33.594;-117.718;2024-01-11T04:53:48;100100.16;;;9.46;100.00
16525;BME280;8375;33.594;-117.718;2024-01-11T04:56:16;100110.66;;;9.45;100.00
16525;BME280;8375;33.594;-117.718;2024-01-11T04:58:47;100113.03;;;9.48;100.00
16525;BME280;8375;33.594;-117.718;2024-01-11T05:01:17;100115.38;;;9.51;100.00
16525;BME280;8375;33.594;-117.718;2024-01-11T05:03:46;100119.72;;;9.50;100.00
16525;BME280;8375;33.594;-117.718;2024-01-11T05:06:18;100125.63;;;9.52;100.00
16525;BME280;8375;33.594;-117.718;2024-01-11T05:08:48;100129.75;;;9.55;100.00
16525;BME280;8375;33.594;-117.718;2024-01-11T05:11:18;100125.28;;;9.57;100.00
16525;BME280;8375;33.594;-117.718;2024-01-11T05:13:48;100123.41;;;9.59;100.00
16525;BME280;8375;33.594;-117.718;2024-01-11T05:16:20;100120.69;;;9.61;100.00
16525;BME280;8375;33.594;-117.718;2024-01-11T05:18:49;100119.88;;;9.60;100.00
16525;BME280;8375;33.594;-117.718;2024-01-11T05:21:18;100111.41;;;9.58;100.00
16525;BME280;8375;33.594;-117.718;2024-01-11T05:23:47;100112.78;;;9.51;100.00
16525;BME280;8375;33.594;-117.718;2024-01-11T05:26:17;100109.59;;;9.47;100.00
16525;BME280;8375;33.594;-117.718;2024-01-11T05:28:47;100111.00;;;9.51;100.00
16525;BME280;8375;33.594;-117.718;2024-01-11T05:31:16;100115.25;;;9.52;100.00
16525;BME280;8375;33.594;-117.718;2024-01-11T05:33:45;100103.47;;;9.48;100.00
16525;BME280;8375;33.594;-117.718;2024-01-11T05:36:13;100107.72;;;9.49;100.00
16525;BME280;8375;33.594;-117.718;2024-01-11T05:38:42;100104.59;;;9.33;100.00
16525;BME280;8375;33.594;-117.718;2024-01-11T05:41:11;100103.44;;;9.37;100.00
16525;BME280;8375;33.594;-117.718;2024-01-11T05:43:40;100100.03;;;9.36;100.00
16525;BME280;8375;33.594;-117.718;2024-01-11T05:46:11;100101.91;;;9.34;100.00
16525;BME280;8375;33.594;-117.718;2024-01-11T05:48:39;100101.56;;;9.39;100.00
16525;BME280;8375;33.594;-117.718;2024-01-11T05:51:08;100104.63;;;9.44;100.00
16525;BME280;8375;33.594;-117.718;2024-01-11T05:53:37;100103.91;;;9.42;100.00
16525;BME280;8375;33.594;-117.718;2024-01-11T05:56:09;100103.59;;;9.47;100.00
16525;BME280;8375;33.594;-117.718;2024-01-11T05:58:38;100100.09;;;9.59;100.00
16525;BME280;8375;33.594;-117.718;2024-01-11T06:01:07;100100.22;;;9.69;100.00
16525;BME280;8375;33.594;-117.718;2024-01-11T06:03:40;100107.91;;;9.82;100.00
16525;BME280;8375;33.594;-117.718;2024-01-11T06:06:09;100101.09;;;9.92;100.00
16525;BME280;8375;33.594;-117.718;2024-01-11T06:08:38;100101.34;;;10.12;100.00
16525;BME280;8375;33.594;-117.718;2024-01-11T06:11:07;100105.22;;;10.18;100.00
16525;BME280;8375;33.594;-117.718;2024-01-11T06:13:35;100107.34;;;10.24;100.00
16525;BME280;8375;33.594;-117.718;2024-01-11T06:16:04;100103.34;;;10.31;100.00
16525;BME280;8375;33.594;-117.718;2024-01-11T06:18:34;100092.38;;;10.39;100.00
16525;BME280;8375;33.594;-117.718;2024-01-11T06:21:04;100086.72;;;10.45;100.00
16525;BME280;8375;33.594;-117.718;2024-01-11T06:23:33;100078.81;;;10.47;100.00
16525;BME280;8375;33.594;-117.718;2024-01-11T06:26:02;100080.94;;;10.53;100.00
16525;BME280;8375;33.594;-117.718;2024-01-11T06:28:31;100080.59;;;10.57;100.00
16525;BME280;8375;33.594;-117.718;2024-01-11T06:30:59;100088.72;;;10.64;100.00
16525;BME280;8375;33.594;-117.718;2024-01-11T06:33:28;100085.75;;;10.69;100.00
16525;BME280;8375;33.594;-117.718;2024-01-11T06:35:57;100089.03;;;10.71;100.00
16525;BME280;8375;33.594;-117.718;2024-01-11T06:38:27;100088.81;;;10.74;100.00
16525;BME280;8375;33.594;-117.718;2024-01-11T06:40:56;100090.59;;;10.74;100.00
16525;BME280;8375;33.594;-117.718;2024-01-11T06:43:25;100082.81;;;10.74;100.00
16525;BME280;8375;33.594;-117.718;2024-01-11T06:45:53;100080.53;;;10.80;100.00
16525;BME280;8375;33.594;-117.718;2024-01-11T06:48:22;100084.91;;;10.80;100.00
16525;BME280;8375;33.594;-117.718;2024-01-11T06:50:51;100079.47;;;10.83;100.00
16525;BME280;8375;33.594;-117.718;2024-01-11T06:53:19;100075.56;;;10.77;100.00
16525;BME280;8375;33.594;-117.718;2024-01-11T06:55:49;100071.22;;;10.78;100.00
16525;BME280;8375;33.594;-117.718;2024-01-11T06:58:21;100068.50;;;10.79;100.00
16525;BME280;8375;33.594;-117.718;2024-01-11T07:00:50;100057.63;;;10.85;100.00
16525;BME280;8375;33.594;-117.718;2024-01-11T07:03:18;100056.56;;;10.88;100.00
16525;BME280;8375;33.594;-117.718;2024-01-11T07:05:47;100065.75;;;10.92;100.00
16525;BME280;8375;33.594;-117.718;2024-01-11T07:08:15;100064.09;;;10.91;100.00
16525;BME280;8375;33.594;-117.718;2024-01-11T07:10:46;100065.50;;;10.95;100.00
16525;BME280;8375;33.594;-117.718;2024-01-11T07:13:17;100063.97;;;10.93;100.00
16525;BME280;8375;33.594;-117.718;2024-01-11T07:15:46;100060.88;;;10.99;100.00
16525;BME280;8375;33.594;-117.718;2024-01-11T07:18:15;100064.06;;;11.03;100.00
16525;BME280;8375;33.594;-117.718;2024-01-11T07:20:43;100071.59;;;11.06;100.00
16525;BME280;8375;33.594;-117.718;2024-01-11T07:23:12;100064.63;;;11.06;100.00
16525;BME280;8375;33.594;-117.718;2024-01-11T07:25:41;100065.47;;;11.07;100.00
16525;BME280;8375;33.594;-117.718;2024-01-11T07:28:09;100059.81;;;11.02;100.00
16525;BME280;8375;33.594;-117.718;2024-01-11T07:30:40;100059.31;;;11.08;100.00
16525;BME280;8375;33.594;-117.718;2024-01-11T07:33:08;100060.31;;;11.17;100.00
16525;BME280;8375;33.594;-117.718;2024-01-11T07:35:37;100060.72;;;11.12;100.00
16525;BME280;8375;33.594;-117.718;2024-01-11T07:38:06;100064.56;;;11.18;100.00
16525;BME280;8375;33.594;-117.718;2024-01-11T07:40:34;100070.72;;;11.17;100.00
16525;BME280;8375;33.594;-117.718;2024-01-11T07:43:03;100070.41;;;11.10;100.00
16525;BME280;8375;33.594;-117.718;2024-01-11T07:45:32;100061.22;;;11.06;100.00
16525;BME280;8375;33.594;-117.718;2024-01-11T07:48:02;100054.81;;;11.10;100.00
16525;BME280;8375;33.594;-117.718;2024-01-11T07:50:31;100055.63;;;11.10;100.00
16525;BME280;8375;33.594;-117.718;2024-01-11T08:15:02;100026.34;;;11.08;100.00
16525;BME280;8375;33.594;-117.718;2024-01-11T08:17:31;100026.03;;;11.02;99.73
16525;BME280;8375;33.594;-117.718;2024-01-11T08:20:00;100031.50;;;10.98;99.32
16525;BME280;8375;33.594;-117.718;2024-01-11T08:22:29;100033.13;;;10.99;99.43
16525;BME280;8375;33.594;-117.718;2024-01-11T08:25:00;100026.41;;;10.97;98.30
16525;BME280;8375;33.594;-117.718;2024-01-11T08:27:29;100031.28;;;10.90;97.77
16525;BME280;8375;33.594;-117.718;2024-01-11T08:29:57;100032.25;;;10.89;97.90
16525;BME280;8375;33.594;-117.718;2024-01-11T08:32:28;100029.75;;;10.88;98.03
16525;BME280;8375;33.594;-117.718;2024-01-11T08:34:57;100021.50;;;10.82;98.08
16525;BME280;8375;33.594;-117.718;2024-01-11T08:37:26;100026.84;;;10.81;98.43
16525;BME280;8375;33.594;-117.718;2024-01-11T08:39:54;100028.84;;;10.77;98.84
16525;BME280;8375;33.594;-117.718;2024-01-11T08:42:23;100025.31;;;10.78;99.12
16525;BME280;8375;33.594;-117.718;2024-01-11T08:44:52;100029.09;;;10.74;99.64
16525;BME280;8375;33.594;-117.718;2024-01-11T08:47:21;100022.63;;;10.68;99.99
16525;BME280;8375;33.594;-117.718;2024-01-11T08:49:51;100022.75;;;10.67;100.00
16525;BME280;8375;33.594;-117.718;2024-01-11T08:52:19;100032.81;;;10.60;99.87
16525;BME280;8375;33.594;-117.718;2024-01-11T08:54:49;100031.03;;;10.61;98.87
16525;BME280;8375;33.594;-117.718;2024-01-11T08:57:17;100034.47;;;10.61;97.71
16525;BME280;8375;33.594;-117.718;2024-01-11T08:59:46;100038.00;;;10.60;95.22
16525;BME280;8375;33.594;-117.718;2024-01-11T09:02:15;100041.06;;;10.54;95.40
16525;BME280;8375;33.594;-117.718;2024-01-11T09:04:43;100047.19;;;10.53;95.77
16525;BME280;8375;33.594;-117.718;2024-01-11T09:07:15;100050.72;;;10.52;95.70
16525;BME280;8375;33.594;-117.718;2024-01-11T09:09:44;100052.06;;;10.46;96.13
16525;BME280;8375;33.594;-117.718;2024-01-11T09:12:12;100044.28;;;10.46;95.90
16525;BME280;8375;33.594;-117.718;2024-01-11T09:14:41;100049.47;;;10.46;97.18
16525;BME280;8375;33.594;-117.718;2024-01-11T09:17:10;100053.09;;;10.44;96.13
16525;BME280;8375;33.594;-117.718;2024-01-11T09:19:38;100044.25;;;10.35;96.40
16525;BME280;8375;33.594;-117.718;2024-01-11T09:22:07;100047.56;;;10.37;96.94
16525;BME280;8375;33.594;-117.718;2024-01-11T09:24:38;100047.66;;;10.35;96.36
16525;BME280;8375;33.594;-117.718;2024-01-11T09:27:06;100044.97;;;10.37;96.50
16525;BME280;8375;33.594;-117.718;2024-01-11T09:29:35;100044.81;;;10.38;95.93
16525;BME280;8375;33.594;-117.718;2024-01-11T09:32:04;100030.34;;;10.36;95.80
16525;BME280;8375;33.594;-117.718;2024-01-11T09:34:33;100036.13;;;10.39;94.93
16525;BME280;8375;33.594;-117.718;2024-01-11T09:37:02;100030.22;;;10.49;94.14
16525;BME280;8375;33.594;-117.718;2024-01-11T09:39:31;100031.06;;;10.49;93.20
16525;BME280;8375;33.594;-117.718;2024-01-11T09:42:06;100047.19;;;10.53;92.46
16525;BME280;8375;33.594;-117.718;2024-01-11T09:44:36;100038.06;;;10.70;89.94
16525;BME280;8375;33.594;-117.718;2024-01-11T09:47:06;100043.84;;;10.74;89.45
16525;BME280;8375;33.594;-117.718;2024-01-11T09:49:36;100051.41;;;10.77;89.40
16525;BME280;8375;33.594;-117.718;2024-01-11T09:52:06;100045.97;;;10.80;89.24
16525;BME280;8375;33.594;-117.718;2024-01-11T09:54:38;100045.34;;;10.88;89.21
16525;BME280;8375;33.594;-117.718;2024-01-11T09:57:09;100043.56;;;10.88;88.46
16525;BME280;8375;33.594;-117.718;2024-01-11T09:59:38;100039.19;;;10.89;88.61
16525;BME280;8375;33.594;-117.718;2024-01-11T10:02:10;100047.56;;;10.92;88.81
16525;BME280;8375;33.594;-117.718;2024-01-11T10:04:42;100042.38;;;10.92;89.24
16525;BME280;8375;33.594;-117.718;2024-01-11T10:07:11;100044.03;;;10.93;89.38
16525;BME280;8375;33.594;-117.718;2024-01-11T10:09:41;100037.88;;;10.94;89.70
16525;BME280;8375;33.594;-117.718;2024-01-11T10:12:11;100036.78;;;10.97;89.83
16525;BME280;8375;33.594;-117.718;2024-01-11T10:14:40;100035.03;;;10.97;90.37
16525;BME280;8375;33.594;-117.718;2024-01-11T10:17:08;100024.72;;;11.07;90.50
16525;BME280;8375;33.594;-117.718;2024-01-11T10:19:37;100026.84;;;11.02;91.37
16525;BME280;8375;33.594;-117.718;2024-01-11T10:22:06;100028.50;;;11.03;92.23
16525;BME280;8375;33.594;-117.718;2024-01-11T10:24:34;100034.09;;;10.98;92.84
16525;BME280;8375;33.594;-117.718;2024-01-11T10:27:03;100040.22;;;10.97;93.37
16525;BME280;8375;33.594;-117.718;2024-01-11T10:29:34;100032.56;;;10.96;93.64
16525;BME280;8375;33.594;-117.718;2024-01-11T10:32:03;100030.34;;;10.91;94.27
16525;BME280;8375;33.594;-117.718;2024-01-11T10:34:32;100029.25;;;10.94;94.59
16525;BME280;8375;33.594;-117.718;2024-01-11T10:37:01;100020.41;;;10.96;94.85
16525;BME280;8375;33.594;-117.718;2024-01-11T10:39:30;100032.31;;;10.99;94.67
16525;BME280;8375;33.594;-117.718;2024-01-11T10:42:05;100028.75;;;11.00;94.82
16525;BME280;8375;33.594;-117.718;2024-01-11T10:44:35;100032.63;;;11.06;95.00
16525;BME280;8375;33.594;-117.718;2024-01-11T10:47:09;100026.25;;;11.10;95.55
16525;BME280;8375;33.594;-117.718;2024-01-11T10:49:40;100015.59;;;11.13;95.48
16525;BME280;8375;33.594;-117.718;2024-01-11T10:52:12;100017.94;;;11.16;96.44
16525;BME280;8375;33.594;-117.718;2024-01-11T10:54:42;100001.53;;;11.15;96.96
16525;BME280;8375;33.594;-117.718;2024-01-11T10:57:12;99996.47;;;11.14;96.96
16525;BME280;8375;33.594;-117.718;2024-01-11T10:59:43;100003.31;;;11.15;97.37
16525;BME280;8375;33.594;-117.718;2024-01-11T11:02:12;100007.31;;;11.19;98.26
16525;BME280;8375;33.594;-117.718;2024-01-11T11:04:42;100006.34;;;11.20;98.44
16525;BME280;8375;33.594;-117.718;2024-01-11T11:07:12;99992.41;;;11.21;100.00
16525;BME280;8375;33.594;-117.718;2024-01-11T11:09:42;99989.94;;;11.20;100.00
16525;BME280;8375;33.594;-117.718;2024-01-11T11:12:12;99990.06;;;11.18;100.00
16525;BME280;8375;33.594;-117.718;2024-01-11T11:14:44;99977.78;;;11.20;100.00
16525;BME280;8375;33.594;-117.718;2024-01-11T11:17:15;99966.44;;;11.21;99.49
16525;BME280;8375;33.594;-117.718;2024-01-11T11:19:44;99970.50;;;11.14;99.54
16525;BME280;8375;33.594;-117.718;2024-01-11T11:22:14;99979.94;;;11.15;99.64
16525;BME280;8375;33.594;-117.718;2024-01-11T11:24:43;99981.56;;;11.16;99.73
16525;BME280;8375;33.594;-117.718;2024-01-11T11:27:14;99973.09;;;11.14;100.00
16525;BME280;8375;33.594;-117.718;2024-01-11T11:29:47;99973.19;;;11.12;100.00
16525;BME280;8375;33.594;-117.718;2024-01-11T11:32:16;99966.00;;;11.16;100.00
16525;BME280;8375;33.594;-117.718;2024-01-11T11:34:44;99957.00;;;11.20;100.00
16525;BME280;8375;33.594;-117.718;2024-01-11T11:37:13;99957.00;;;11.20;100.00
16525;BME280;8375;33.594;-117.718;2024-01-11T11:39:50;99966.44;;;11.21;100.00
16525;BME280;8375;33.594;-117.718;2024-01-11T11:42:19;99953.03;;;11.26;100.00
16525;BME280;8375;33.594;-117.718;2024-01-11T11:44:52;99954.81;;;11.25;100.00
16525;BME280;8375;33.594;-117.718;2024-01-11T11:47:21;99948.78;;;11.25;100.00
16525;BME280;8375;33.594;-117.718;2024-01-11T11:52:33;99915.72;;;11.27;98.82
16525;BME280;8375;33.594;-117.718;2024-01-11T11:55:03;99915.16;;;11.23;99.12
16525;BME280;8375;33.594;-117.718;2024-01-11T11:57:32;99909.69;;;11.26;99.06
16525;BME280;8375;33.594;-117.718;2024-01-11T12:00:03;99893.84;;;11.29;98.90
16525;BME280;8375;33.594;-117.718;2024-01-11T12:02:32;99900.69;;;11.30;99.18
16525;BME280;8375;33.594;-117.718;2024-01-11T12:05:02;99899.16;;;11.28;98.92
16525;BME280;8375;33.594;-117.718;2024-01-11T12:07:32;99904.78;;;11.33;98.74
16525;BME280;8375;33.594;-117.718;2024-01-11T12:10:01;99909.03;;;11.34;98.51
16525;BME280;8375;33.594;-117.718;2024-01-11T12:12:30;99904.78;;;11.33;98.19
16525;BME280;8375;33.594;-117.718;2024-01-11T12:14:58;99907.97;;;11.37;98.09
16525;BME280;8375;33.594;-117.718;2024-01-11T12:17:28;99904.53;;;11.36;97.82
16525;BME280;8375;33.594;-117.718;2024-01-11T12:19:57;99917.69;;;11.35;96.63
16525;BME280;8375;33.594;-117.718;2024-01-11T12:22:25;99920.97;;;11.37;96.59
16525;BME280;8375;33.594;-117.718;2024-01-11T12:24:54;99918.09;;;11.40;97.18
16525;BME280;8375;33.594;-117.718;2024-01-11T12:27:24;99906.88;;;11.39;97.25
16525;BME280;8375;33.594;-117.718;2024-01-11T12:29:53;99905.22;;;11.38;97.89
16525;BME280;8375;33.594;-117.718;2024-01-11T12:32:22;99907.41;;;11.33;97.84
16525;BME280;8375;33.594;-117.718;2024-01-11T12:34:53;99911.94;;;11.41;98.41
16525;BME280;8375;33.594;-117.718;2024-01-11T12:37:22;99915.25;;;11.43;98.34
16525;BME280;8375;33.594;-117.718;2024-01-11T12:39:57;99905.28;;;11.48;98.49
16525;BME280;8375;33.594;-117.718;2024-01-11T12:42:26;99899.50;;;11.44;98.30
16525;BME280;8375;33.594;-117.718;2024-01-11T12:44:55;99904.16;;;11.41;98.17
16525;BME280;8375;33.594;-117.718;2024-01-11T12:47:24;99912.38;;;11.46;98.36
16525;BME280;8375;33.594;-117.718;2024-01-11T12:49:54;99922.09;;;11.44;98.27
16525;BME280;8375;33.594;-117.718;2024-01-11T12:52:23;99918.66;;;11.43;97.96
16525;BME280;8375;33.594;-117.718;2024-01-11T12:54:53;99916.19;;;11.42;97.62
16525;BME280;8375;33.594;-117.718;2024-01-11T12:57:23;99930.00;;;11.42;97.44
16525;BME280;8375;33.594;-117.718;2024-01-11T12:59:51;99932.22;;;11.47;97.46
16525;BME280;8375;33.594;-117.718;2024-01-11T13:02:20;99917.31;;;11.49;97.79
16525;BME280;8375;33.594;-117.718;2024-01-11T13:04:50;99925.94;;;11.50;98.01